sensor_id;sensor_type;location;lat;lon;timestamp;pressure;altitude;pressure_sealevel;temperature;humidity
7990;BME280;4040;42.848;23.034;2024-01-30T00:01:04;96877.81;;;-1.43;100.00
7990;BME280;4040;42.848;23.034;2024-01-30T00:03:32;96886.25;;;-1.41;100.00
7990;BME280;4040;42.848;23.034;2024-01-30T00:09:22;96894.63;;;-1.29;100.00
7990;BME280;4040;42.848;23.034;2024-01-30T00:15:11;96878.84;;;-1.39;100.00
7990;BME280;4040;42.848;23.034;2024-01-30T00:21:01;96889.50;;;-1.49;100.00
7990;BME280;4040;42.848;23.034;2024-01-30T00:26:50;96895.59;;;-1.54;100.00
7990;BME280;4040;42.848;23.034;2024-01-30T00:32:40;96892.47;;;-1.61;100.00
7990;BME280;4040;42.848;23.034;2024-01-30T00:38:30;96894.84;;;-1.59;100.00
7990;BME280;4040;42.848;23.034;2024-01-30T00:44:19;96902.09;;;-1.41;100.00
7990;BME280;4040;42.848;23.034;2024-01-30T00:50:09;96912.69;;;-1.41;100.00
7990;BME280;4040;42.848;23.034;2024-01-30T00:56:00;96910.78;;;-1.31;100.00
7990;BME280;4040;42.848;23.034;2024-01-30T01:01:49;96908.13;;;-1.31;100.00
7990;BME280;4040;42.848;23.034;2024-01-30T01:07:37;96900.88;;;-1.20;100.00
7990;BME280;4040;42.848;23.034;2024-01-30T01:13:28;96899.38;;;-1.31;100.00
7990;BME280;4040;42.848;23.034;2024-01-30T01:19:17;96894.78;;;-1.49;100.00
7990;BME280;4040;42.848;23.034;2024-01-30T01:25:06;96862.09;;;-1.63;100.00
7990;BME280;4040;42.848;23.034;2024-01-30T01:30:57;96902.25;;;-1.61;100.00
7990;BME280;4040;42.848;23.034;2024-01-30T01:36:52;96891.13;;;-1.58;100.00
7990;BME280;4040;42.848;23.034;2024-01-30T01:42:42;96878.69;;;-1.53;100.00
7990;BME280;4040;42.848;23.034;2024-01-30T01:48:33;96895.53;;;-1.44;100.00
7990;BME280;4040;42.848;23.034;2024-01-30T01:54:22;96894.09;;;-1.26;100.00
7990;BME280;4040;42.848;23.034;2024-01-30T02:00:13;96861.47;;;-1.17;100.00
7990;BME280;4040;42.848;23.034;2024-01-30T02:10:07;96880.88;;;-0.98;100.00
7990;BME280;4040;42.848;23.034;2024-01-30T02:15:57;96884.56;;;-0.94;100.00
7990;BME280;4040;42.848;23.034;2024-01-30T02:21:48;96880.69;;;-0.78;100.00
7990;BME280;4040;42.848;23.034;2024-01-30T02:27:37;96880.53;;;-0.63;100.00
7990;BME280;4040;42.848;23.034;2024-01-30T02:33:26;96875.97;;;-0.57;100.00
7990;BME280;4040;42.848;23.034;2024-01-30T02:39:16;96876.03;;;-0.62;100.00
7990;BME280;4040;42.848;23.034;2024-01-30T02:45:06;96876.44;;;-0.50;100.00
7990;BME280;4040;42.848;23.034;2024-01-30T02:50:55;96877.00;;;-0.53;100.00
7990;BME280;4040;42.848;23.034;2024-01-30T02:56:46;96876.34;;;-0.40;100.00
7990;BME280;4040;42.848;23.034;2024-01-30T03:02:35;96879.59;;;-0.48;100.00
7990;BME280;4040;42.848;23.034;2024-01-30T03:12:48;96873.69;;;-0.40;100.00
7990;BME280;4040;42.848;23.034;2024-01-30T03:18:37;96876.69;;;-0.47;100.00
7990;BME280;4040;42.848;23.034;2024-01-30T03:24:26;96871.81;;;-0.63;100.00
7990;BME280;4040;42.848;23.034;2024-01-30T03:30:16;96862.81;;;-0.62;100.00
7990;BME280;4040;42.848;23.034;2024-01-30T03:36:06;96855.59;;;-0.80;100.00
7990;BME280;4040;42.848;23.034;2024-01-30T03:41:55;96856.06;;;-0.73;100.00
7990;BME280;4040;42.848;23.034;2024-01-30T03:47:45;96845.00;;;-0.80;100.00
7990;BME280;4040;42.848;23.034;2024-01-30T03:53:34;96848.97;;;-0.78;100.00
7990;BME280;4040;42.848;23.034;2024-01-30T03:59:23;96852.31;;;-0.96;100.00
7990;BME280;4040;42.848;23.034;2024-01-30T04:05:13;96857.06;;;-0.93;100.00
7990;BME280;4040;42.848;23.034;2024-01-30T04:15:25;96850.63;;;-1.15;100.00
7990;BME280;4040;42.848;23.034;2024-01-30T04:21:15;96845.38;;;-1.20;100.00
7990;BME280;4040;42.848;23.034;2024-01-30T04:27:04;96866.16;;;-1.37;100.00
7990;BME280;4040;42.848;23.034;2024-01-30T04:32:53;96873.09;;;-1.46;100.00
7990;BME280;4040;42.848;23.034;2024-01-30T04:38:44;96873.53;;;-1.34;100.00
7990;BME280;4040;42.848;23.034;2024-01-30T04:44:33;96873.00;;;-1.36;100.00
7990;BME280;4040;42.848;23.034;2024-01-30T04:50:23;96881.13;;;-1.61;100.00
7990;BME280;4040;42.848;23.034;2024-01-30T04:56:15;96875.91;;;-1.71;100.00
7990;BME280;4040;42.848;23.034;2024-01-30T05:02:04;96887.91;;;-1.94;100.00
7990;BME280;4040;42.848;23.034;2024-01-30T05:07:54;96870.31;;;-2.13;100.00
7990;BME280;4040;42.848;23.034;2024-01-30T05:18:06;96903.59;;;-2.17;100.00
7990;BME280;4040;42.848;23.034;2024-01-30T05:23:55;96905.03;;;-2.49;100.00
7990;BME280;4040;42.848;23.034;2024-01-30T05:29:45;96898.44;;;-2.57;100.00
7990;BME280;4040;42.848;23.034;2024-01-30T05:35:35;96841.03;;;-2.90;100.00
7990;BME280;4040;42.848;23.034;2024-01-30T05:41:24;96901.13;;;-2.82;100.00
7990;BME280;4040;42.848;23.034;2024-01-30T05:47:13;96885.31;;;-2.92;100.00
7990;BME280;4040;42.848;23.034;2024-01-30T05:53:04;96899.53;;;-2.88;100.00
7990;BME280;4040;42.848;23.034;2024-01-30T05:58:53;96900.09;;;-2.96;100.00
7990;BME280;4040;42.848;23.034;2024-01-30T06:04:42;96900.59;;;-2.89;100.00
7990;BME280;4040;42.848;23.034;2024-01-30T06:10:33;96905.59;;;-2.82;100.00
7990;BME280;4040;42.848;23.034;2024-01-30T06:20:43;96915.63;;;-2.79;100.00
7990;BME280;4040;42.848;23.034;2024-01-30T06:26:35;96913.19;;;-2.51;100.00
7990;BME280;4040;42.848;23.034;2024-01-30T06:32:24;96917.97;;;-2.53;100.00
7990;BME280;4040;42.848;23.034;2024-01-30T06:38:14;96921.09;;;-2.41;100.00
7990;BME280;4040;42.848;23.034;2024-01-30T06:44:05;96916.34;;;-1.81;100.00
7990;BME280;4040;42.848;23.034;2024-01-30T06:49:55;96911.97;;;-1.57;100.00
7990;BME280;4040;42.848;23.034;2024-01-30T06:55:44;96907.00;;;-0.91;100.00
7990;BME280;4040;42.848;23.034;2024-01-30T07:01:34;96907.47;;;2.06;100.00
7990;BME280;4040;42.848;23.034;2024-01-30T07:07:23;96903.25;;;3.64;88.15
7990;BME280;4040;42.848;23.034;2024-01-30T07:13:12;96894.22;;;5.48;70.77
7990;BME280;4040;42.848;23.034;2024-01-30T07:23:27;96898.19;;;6.83;62.43
7990;BME280;4040;42.848;23.034;2024-01-30T07:29:17;96892.09;;;6.74;60.24
7990;BME280;4040;42.848;23.034;2024-01-30T07:35:06;96896.03;;;5.01;62.33
7990;BME280;4040;42.848;23.034;2024-01-30T07:37:34;96898.81;;;5.30;65.78
7990;BME280;4040;42.848;23.034;2024-01-30T07:40:04;96894.56;;;6.30;61.70
7990;BME280;4040;42.848;23.034;2024-01-30T07:45:54;96899.16;;;5.20;62.04
7990;BME280;4040;42.848;23.034;2024-01-30T07:51:43;96903.16;;;3.47;61.31
7990;BME280;4040;42.848;23.034;2024-01-30T07:54:10;96902.53;;;3.80;62.18
7990;BME280;4040;42.848;23.034;2024-01-30T08:00:01;96906.22;;;2.88;62.27
7990;BME280;4040;42.848;23.034;2024-01-30T08:05:53;96901.94;;;2.65;63.47
7990;BME280;4040;42.848;23.034;2024-01-30T08:08:21;96898.22;;;2.66;64.40
7990;BME280;4040;42.848;23.034;2024-01-30T08:14:09;96893.28;;;5.98;56.36
7990;BME280;4040;42.848;23.034;2024-01-30T08:20:00;96885.78;;;8.84;45.90
7990;BME280;4040;42.848;23.034;2024-01-30T08:25:51;96880.19;;;10.48;41.18
7990;BME280;4040;42.848;23.034;2024-01-30T08:31:40;96881.06;;;9.48;42.68
7990;BME280;4040;42.848;23.034;2024-01-30T08:34:07;96867.78;;;11.16;40.03
7990;BME280;4040;42.848;23.034;2024-01-30T08:36:36;96876.22;;;12.39;37.24
7990;BME280;4040;42.848;23.034;2024-01-30T08:42:25;96872.56;;;14.52;34.51
7990;BME280;4040;42.848;23.034;2024-01-30T08:44:53;96876.34;;;14.40;32.94
7990;BME280;4040;42.848;23.034;2024-01-30T08:50:43;96870.59;;;15.10;32.41
7990;BME280;4040;42.848;23.034;2024-01-30T08:56:34;96866.66;;;14.43;31.43
7990;BME280;4040;42.848;23.034;2024-01-30T09:02:22;96873.94;;;12.41;33.62
7990;BME280;4040;42.848;23.034;2024-01-30T09:08:11;96891.13;;;10.90;35.65
7990;BME280;4040;42.848;23.034;2024-01-30T09:14:02;96883.44;;;10.57;36.88
7990;BME280;4040;42.848;23.034;2024-01-30T09:19:51;96885.19;;;10.65;37.09
7990;BME280;4040;42.848;23.034;2024-01-30T09:25:40;96879.00;;;11.75;35.49
7990;BME280;4040;42.848;23.034;2024-01-30T09:31:30;96875.13;;;10.00;37.65
7990;BME280;4040;42.848;23.034;2024-01-30T09:37:19;96867.50;;;10.33;37.86
7990;BME280;4040;42.848;23.034;2024-01-30T09:43:11;96871.81;;;12.05;34.84
7990;BME280;4040;42.848;23.034;2024-01-30T09:49:13;96865.59;;;11.41;36.15
7990;BME280;4040;42.848;23.034;2024-01-30T09:51:41;96861.00;;;11.22;35.79
7990;BME280;4040;42.848;23.034;2024-01-30T09:54:10;96844.19;;;11.70;35.61
7990;BME280;4040;42.848;23.034;2024-01-30T09:59:59;96866.44;;;11.64;35.55
7990;BME280;4040;42.848;23.034;2024-01-30T10:05:51;96862.56;;;12.06;35.08
7990;BME280;4040;42.848;23.034;2024-01-30T10:11:41;96860.00;;;14.30;31.90
7990;BME280;4040;42.848;23.034;2024-01-30T10:17:30;96844.72;;;12.50;33.05
7990;BME280;4040;42.848;23.034;2024-01-30T10:27:42;96837.16;;;13.18;32.71
7990;BME280;4040;42.848;23.034;2024-01-30T10:33:31;96837.13;;;13.84;31.41
7990;BME280;4040;42.848;23.034;2024-01-30T10:39:21;96831.38;;;13.19;32.45
7990;BME280;4040;42.848;23.034;2024-01-30T10:45:13;96825.53;;;12.58;32.99
7990;BME280;4040;42.848;23.034;2024-01-30T10:51:04;96820.28;;;12.43;32.67
7990;BME280;4040;42.848;23.034;2024-01-30T10:56:53;96806.78;;;12.98;32.41
7990;BME280;4040;42.848;23.034;2024-01-30T11:02:45;96748.44;;;12.68;32.77
7990;BME280;4040;42.848;23.034;2024-01-30T11:08:34;96811.50;;;14.18;30.71
7990;BME280;4040;42.848;23.034;2024-01-30T11:14:24;96796.66;;;12.37;33.88
7990;BME280;4040;42.848;23.034;2024-01-30T11:20:16;96782.53;;;15.00;29.62
7990;BME280;4040;42.848;23.034;2024-01-30T11:30:28;96785.41;;;13.59;31.75
7990;BME280;4040;42.848;23.034;2024-01-30T11:36:21;96774.34;;;13.75;31.80
7990;BME280;4040;42.848;23.034;2024-01-30T11:38:52;96770.38;;;13.62;31.67
7990;BME280;4040;42.848;23.034;2024-01-30T11:44:41;96776.34;;;13.41;31.96
7990;BME280;4040;42.848;23.034;2024-01-30T11:47:08;96769.00;;;12.76;33.25
7990;BME280;4040;42.848;23.034;2024-01-30T11:49:37;96761.16;;;12.97;32.60
7990;BME280;4040;42.848;23.034;2024-01-30T11:55:28;96747.34;;;12.76;32.20
7990;BME280;4040;42.848;23.034;2024-01-30T11:57:56;96752.88;;;11.53;34.77
7990;BME280;4040;42.848;23.034;2024-01-30T12:03:49;96748.19;;;11.95;33.50
7990;BME280;4040;42.848;23.034;2024-01-30T12:09:38;96739.09;;;12.62;33.30
7990;BME280;4040;42.848;23.034;2024-01-30T12:12:07;96730.94;;;11.77;33.91
7990;BME280;4040;42.848;23.034;2024-01-30T12:14:38;96735.91;;;11.75;33.94
7990;BME280;4040;42.848;23.034;2024-01-30T12:20:27;96731.28;;;9.52;37.23
7990;BME280;4040;42.848;23.034;2024-01-30T12:22:55;96743.31;;;8.41;39.36
7990;BME280;4040;42.848;23.034;2024-01-30T12:33:07;96743.03;;;4.92;46.90
7990;BME280;4040;42.848;23.034;2024-01-30T12:35:35;96724.63;;;4.20;48.47
7990;BME280;4040;42.848;23.034;2024-01-30T12:38:03;96740.31;;;4.13;49.97
7990;BME280;4040;42.848;23.034;2024-01-30T12:43:52;96740.13;;;4.01;53.19
7990;BME280;4040;42.848;23.034;2024-01-30T12:49:42;96742.56;;;3.55;56.66
7990;BME280;4040;42.848;23.034;2024-01-30T12:52:10;96737.41;;;3.50;57.28
7990;BME280;4040;42.848;23.034;2024-01-30T12:54:38;96714.22;;;3.11;58.36
7990;BME280;4040;42.848;23.034;2024-01-30T13:00:27;96743.25;;;3.21;59.48
7990;BME280;4040;42.848;23.034;2024-01-30T13:02:54;96740.34;;;3.01;60.08
7990;BME280;4040;42.848;23.034;2024-01-30T13:08:45;96734.13;;;3.14;62.49
7990;BME280;4040;42.848;23.034;2024-01-30T13:11:12;96707.78;;;3.04;61.58
7990;BME280;4040;42.848;23.034;2024-01-30T13:17:01;96711.53;;;3.03;62.44
7990;BME280;4040;42.848;23.034;2024-01-30T13:19:28;96722.53;;;3.10;62.33
7990;BME280;4040;42.848;23.034;2024-01-30T13:25:19;96714.94;;;3.25;60.73
7990;BME280;4040;42.848;23.034;2024-01-30T13:35:29;96714.22;;;3.11;61.82
7990;BME280;4040;42.848;23.034;2024-01-30T13:41:20;96720.13;;;3.39;61.67
7990;BME280;4040;42.848;23.034;2024-01-30T13:47:10;96722.44;;;3.23;60.33
7990;BME280;4040;42.848;23.034;2024-01-30T13:52:59;96703.47;;;3.16;60.64
7990;BME280;4040;42.848;23.034;2024-01-30T13:55:26;96708.19;;;3.28;61.06
7990;BME280;4040;42.848;23.034;2024-01-30T14:01:17;96697.03;;;3.17;62.40
7990;BME280;4040;42.848;23.034;2024-01-30T14:07:06;96691.81;;;3.04;61.78
7990;BME280;4040;42.848;23.034;2024-01-30T14:09:33;96707.78;;;3.04;61.97
7990;BME280;4040;42.848;23.034;2024-01-30T14:15:22;96711.38;;;2.99;63.09
7990;BME280;4040;42.848;23.034;2024-01-30T14:21:13;96701.31;;;2.88;63.39
7990;BME280;4040;42.848;23.034;2024-01-30T14:27:02;96708.31;;;2.84;63.95
7990;BME280;4040;42.848;23.034;2024-01-30T14:36:34;96707.16;;;2.68;66.05
7990;BME280;4040;42.848;23.034;2024-01-30T14:42:23;96714.59;;;2.57;66.34
7990;BME280;4040;42.848;23.034;2024-01-30T14:48:12;96712.19;;;2.47;67.79
7990;BME280;4040;42.848;23.034;2024-01-30T14:54:03;96713.00;;;2.26;70.71
7990;BME280;4040;42.848;23.034;2024-01-30T14:59:52;96718.31;;;2.26;70.74
7990;BME280;4040;42.848;23.034;2024-01-30T15:05:41;96710.09;;;2.14;73.11
7990;BME280;4040;42.848;23.034;2024-01-30T15:11:32;96714.66;;;2.00;73.67
7990;BME280;4040;42.848;23.034;2024-01-30T15:17:22;96701.34;;;1.78;76.13
7990;BME280;4040;42.848;23.034;2024-01-30T15:23:11;96713.97;;;1.59;81.65
7990;BME280;4040;42.848;23.034;2024-01-30T15:29:03;96722.69;;;1.38;89.63
7990;BME280;4040;42.848;23.034;2024-01-30T15:35:03;96727.22;;;1.10;95.78
7990;BME280;4040;42.848;23.034;2024-01-30T15:40:53;96738.22;;;0.90;100.00
7990;BME280;4040;42.848;23.034;2024-01-30T15:43:20;96738.47;;;0.75;100.00
7990;BME280;4040;42.848;23.034;2024-01-30T15:49:11;96726.16;;;0.52;100.00
7990;BME280;4040;42.848;23.034;2024-01-30T15:55:00;96744.38;;;0.40;100.00
7990;BME280;4040;42.848;23.034;2024-01-30T15:57:27;96750.31;;;0.32;100.00
7990;BME280;4040;42.848;23.034;2024-01-30T16:03:16;96750.38;;;0.14;100.00
7990;BME280;4040;42.848;23.034;2024-01-30T16:09:07;96753.03;;;-0.04;100.00
7990;BME280;4040;42.848;23.034;2024-01-30T16:14:56;96759.03;;;-0.17;100.00
7990;BME280;4040;42.848;23.034;2024-01-30T16:20:45;96768.66;;;-0.45;100.00
7990;BME280;4040;42.848;23.034;2024-01-30T16:23:12;96762.66;;;-0.50;100.00
7990;BME280;4040;42.848;23.034;2024-01-30T16:29:03;96754.59;;;-0.64;100.00
7990;BME280;4040;42.848;23.034;2024-01-30T16:34:51;96784.34;;;-0.72;100.00
7990;BME280;4040;42.848;23.034;2024-01-30T16:37:19;96777.25;;;-0.76;100.00
7990;BME280;4040;42.848;23.034;2024-01-30T16:43:08;96793.47;;;-0.83;100.00
7990;BME280;4040;42.848;23.034;2024-01-30T16:45:37;96748.66;;;-0.98;100.00
7990;BME280;4040;42.848;23.034;2024-01-30T16:51:25;96787.16;;;-0.87;100.00
7990;BME280;4040;42.848;23.034;2024-01-30T16:57:14;96771.69;;;-0.98;100.00
7990;BME280;4040;42.848;23.034;2024-01-30T17:03:05;96775.84;;;-0.92;100.00
7990;BME280;4040;42.848;23.034;2024-01-30T17:05:33;96765.88;;;-1.00;100.00
7990;BME280;4040;42.848;23.034;2024-01-30T17:11:22;96761.81;;;-1.16;100.00
7990;BME280;4040;42.848;23.034;2024-01-30T17:13:49;96787.13;;;-1.10;100.00
7990;BME280;4040;42.848;23.034;2024-01-30T17:16:17;96770.44;;;-1.34;100.00
7990;BME280;4040;42.848;23.034;2024-01-30T17:22:08;96775.72;;;-1.34;100.00
7990;BME280;4040;42.848;23.034;2024-01-30T17:24:35;96788.91;;;-1.29;100.00
7990;BME280;4040;42.848;23.034;2024-01-30T17:30:24;96791.59;;;-1.34;100.00
7990;BME280;4040;42.848;23.034;2024-01-30T17:36:15;96796.50;;;-1.51;100.00
7990;BME280;4040;42.848;23.034;2024-01-30T17:38:44;96792.00;;;-1.51;100.00
7990;BME280;4040;42.848;23.034;2024-01-30T17:44:34;96798.75;;;-1.68;100.00
7990;BME280;4040;42.848;23.034;2024-01-30T17:50:27;96806.19;;;-1.75;100.00
7990;BME280;4040;42.848;23.034;2024-01-30T17:56:17;96809.97;;;-1.86;100.00
7990;BME280;4040;42.848;23.034;2024-01-30T18:02:06;96808.50;;;-2.07;100.00
7990;BME280;4040;42.848;23.034;2024-01-30T18:07:55;96807.91;;;-2.43;100.00
7990;BME280;4040;42.848;23.034;2024-01-30T18:10:23;96806.41;;;-2.58;100.00
7990;BME280;4040;42.848;23.034;2024-01-30T18:16:13;96805.19;;;-2.86;100.00
7990;BME280;4040;42.848;23.034;2024-01-30T18:22:02;96801.50;;;-2.85;100.00
7990;BME280;4040;42.848;23.034;2024-01-30T18:27:51;96800.91;;;-2.77;100.00
7990;BME280;4040;42.848;23.034;2024-01-30T18:30:19;96800.91;;;-2.77;100.00
7990;BME280;4040;42.848;23.034;2024-01-30T18:36:09;96788.84;;;-2.93;100.00
7990;BME280;4040;42.848;23.034;2024-01-30T18:41:58;96799.44;;;-3.13;100.00
7990;BME280;4040;42.848;23.034;2024-01-30T18:44:25;96802.09;;;-3.18;100.00
7990;BME280;4040;42.848;23.034;2024-01-30T18:50:14;96793.91;;;-3.16;100.00
7990;BME280;4040;42.848;23.034;2024-01-30T18:52:43;96757.09;;;-3.51;100.00
7990;BME280;4040;42.848;23.034;2024-01-30T18:58:32;96797.38;;;-3.51;100.00
7990;BME280;4040;42.848;23.034;2024-01-30T19:04:21;96801.59;;;-3.35;100.00
7990;BME280;4040;42.848;23.034;2024-01-30T19:10:12;96797.09;;;-3.34;100.00
7990;BME280;4040;42.848;23.034;2024-01-30T19:16:01;96805.28;;;-3.56;100.00
7990;BME280;4040;42.848;23.034;2024-01-30T19:21:50;96798.94;;;-3.60;100.00
7990;BME280;4040;42.848;23.034;2024-01-30T19:27:41;96790.03;;;-3.69;100.00
7990;BME280;4040;42.848;23.034;2024-01-30T19:33:30;96798.44;;;-3.67;100.00
7990;BME280;4040;42.848;23.034;2024-01-30T19:43:22;96786.31;;;-3.73;100.00
7990;BME280;4040;42.848;23.034;2024-01-30T19:49:12;96786.34;;;-3.88;100.00
7990;BME280;4040;42.848;23.034;2024-01-30T19:55:02;96786.84;;;-3.86;100.00
7990;BME280;4040;42.848;23.034;2024-01-30T20:00:52;96775.28;;;-3.85;100.00
7990;BME280;4040;42.848;23.034;2024-01-30T20:06:42;96776.06;;;-3.84;100.00
7990;BME280;4040;42.848;23.034;2024-01-30T20:12:31;96773.69;;;-4.06;100.00
7990;BME280;4040;42.848;23.034;2024-01-30T20:18:22;96776.31;;;-4.21;100.00
7990;BME280;4040;42.848;23.034;2024-01-30T20:24:11;96781.81;;;-4.27;100.00
7990;BME280;4040;42.848;23.034;2024-01-30T20:30:13;96780.47;;;-4.35;100.00
7990;BME280;4040;42.848;23.034;2024-01-30T20:36:07;96778.88;;;-4.36;100.00
7990;BME280;4040;42.848;23.034;2024-01-30T20:38:35;96779.69;;;-4.35;100.00
7990;BME280;4040;42.848;23.034;2024-01-30T20:44:24;96774.66;;;-4.47;100.00
7990;BME280;4040;42.848;23.034;2024-01-30T20:50:13;96764.63;;;-4.55;100.00
7990;BME280;4040;42.848;23.034;2024-01-30T20:56:04;96754.34;;;-4.71;100.00
7990;BME280;4040;42.848;23.034;2024-01-30T21:01:52;96750.84;;;-4.87;100.00
7990;BME280;4040;42.848;23.034;2024-01-30T21:07:41;96720.88;;;-5.05;100.00
7990;BME280;4040;42.848;23.034;2024-01-30T21:13:32;96744.56;;;-4.91;100.00
7990;BME280;4040;42.848;23.034;2024-01-30T21:19:21;96748.22;;;-4.92;100.00
7990;BME280;4040;42.848;23.034;2024-01-30T21:25:11;96705.31;;;-5.17;100.00
7990;BME280;4040;42.848;23.034;2024-01-30T21:31:03;96750.31;;;-4.93;100.00
7990;BME280;4040;42.848;23.034;2024-01-30T21:36:55;96739.78;;;-4.98;100.00
7990;BME280;4040;42.848;23.034;2024-01-30T21:42:44;96741.34;;;-5.02;100.00
7990;BME280;4040;42.848;23.034;2024-01-30T21:48:35;96727.66;;;-5.14;100.00
7990;BME280;4040;42.848;23.034;2024-01-30T21:54:25;96737.28;;;-5.30;100.00
7990;BME280;4040;42.848;23.034;2024-01-30T22:00:15;96738.59;;;-5.27;100.00
7990;BME280;4040;42.848;23.034;2024-01-30T22:06:06;96730.41;;;-5.36;100.00
7990;BME280;4040;42.848;23.034;2024-01-30T22:11:56;96737.47;;;-5.41;100.00
7990;BME280;4040;42.848;23.034;2024-01-30T22:17:45;96728.66;;;-5.67;100.00
7990;BME280;4040;42.848;23.034;2024-01-30T22:23:37;96734.13;;;-5.73;100.00
7990;BME280;4040;42.848;23.034;2024-01-30T22:29:26;96737.75;;;-5.84;100.00
7990;BME280;4040;42.848;23.034;2024-01-30T22:35:16;96714.53;;;-6.02;100.00
7990;BME280;4040;42.848;23.034;2024-01-30T22:41:08;96732.16;;;-5.98;100.00
7990;BME280;4040;42.848;23.034;2024-01-30T22:46:57;96723.66;;;-6.10;100.00
7990;BME280;4040;42.848;23.034;2024-01-30T22:52:46;96696.97;;;-6.33;100.00
7990;BME280;4040;42.848;23.034;2024-01-30T22:58:39;96718.84;;;-6.23;100.00
7990;BME280;4040;42.848;23.034;2024-01-30T23:08:29;96723.69;;;-6.36;100.00
7990;BME280;4040;42.848;23.034;2024-01-30T23:14:18;96706.56;;;-6.17;100.00
7990;BME280;4040;42.848;23.034;2024-01-30T23:20:08;96664.66;;;-6.44;100.00
7990;BME280;4040;42.848;23.034;2024-01-30T23:26:00;96653.59;;;-6.51;100.00
7990;BME280;4040;42.848;23.034;2024-01-30T23:31:50;96705.97;;;-6.24;100.00
7990;BME280;4040;42.848;23.034;2024-01-30T23:37:40;96694.94;;;-6.26;100.00
7990;BME280;4040;42.848;23.034;2024-01-30T23:43:30;96696.91;;;-6.43;100.00
7990;BME280;4040;42.848;23.034;2024-01-30T23:49:20;96690.50;;;-6.57;100.00
7990;BME280;4040;42.848;23.034;2024-01-30T23:55:10;96693.44;;;-6.75;100.00
